Time;durP1;ratioP1;P1;durP2;ratioP2;P2;SDS_P1;SDS_P2;PMS_P1;PMS_P2;Temp;Humidity;BMP_temperature;BMP_pressure;BME280_temperature;BME280_humidity;BME280_pressure;Samples;Min_cycle;Max_cycle;Signal;HPM_P1;HPM_P2
2022/10/05 00:01:45;;;;;;;9.10;5.20;;;;;;;16.88;80.90;101423.03;6274850;22;20022;-62
2022/10/05 00:04:14;;;;;;;9.57;4.45;;;;;;;16.81;81.56;101426.34;6274992;22;20024;-62
2022/10/05 00:06:43;;;;;;;7.20;4.63;;;;;;;16.72;80.92;101420.00;6276888;22;20011;-64
2022/10/05 00:09:15;;;;;;;7.32;5.03;;;;;;;16.74;81.70;101420.50;6277719;22;20028;-64
2022/10/05 00:11:43;;;;;;;11.15;5.43;;;;;;;16.65;81.44;101420.56;6249890;22;20478;-61
2022/10/05 00:14:19;;;;;;;10.32;5.03;;;;;;;16.57;81.74;101421.44;6275462;22;20022;-63
2022/10/05 00:16:46;;;;;;;11.48;5.40;;;;;;;16.28;82.07;101424.19;6275975;22;20343;-63
2022/10/05 00:19:30;;;;;;;10.70;5.60;;;;;;;16.35;83.47;101420.88;6276982;22;20538;-62
2022/10/05 00:22:13;;;;;;;10.35;5.57;;;;;;;16.40;83.65;101417.91;6249333;22;20022;-62
2022/10/05 00:24:41;;;;;;;9.65;5.43;;;;;;;16.40;83.90;101410.38;6250971;22;20039;-62
2022/10/05 00:27:23;;;;;;;8.73;5.57;;;;;;;16.48;83.95;101405.94;6250459;22;20015;-62
2022/10/05 00:29:53;;;;;;;10.75;5.70;;;;;;;16.39;83.79;101399.56;6250738;22;20012;-62
2022/10/05 00:32:20;;;;;;;11.68;6.53;;;;;;;16.41;84.63;101391.72;6250857;22;20020;-61
2022/10/05 00:34:48;;;;;;;9.98;6.80;;;;;;;16.27;84.72;101396.69;6277272;22;20020;-62
2022/10/05 00:37:15;;;;;;;10.55;6.35;;;;;;;16.19;84.68;101397.56;6274688;22;20049;-62
2022/10/05 00:39:43;;;;;;;10.93;6.65;;;;;;;15.90;85.37;101400.31;6250505;22;20030;-62
2022/10/05 00:42:33;;;;;;;13.52;7.45;;;;;;;15.84;86.24;101399.66;6276624;22;20016;-62
2022/10/05 00:45:08;;;;;;;12.15;7.13;;;;;;;15.92;86.62;101393.25;6224520;22;20022;-62
2022/10/05 00:48:06;;;;;;;11.85;7.20;;;;;;;15.96;85.93;101394.22;6277111;22;20020;-62
2022/10/05 00:50:39;;;;;;;12.73;7.80;;;;;;;16.02;86.63;101390.13;6277798;22;20440;-64
2022/10/05 00:53:18;;;;;;;12.20;7.18;;;;;;;15.92;86.56;101392.47;6250113;22;20352;-64
2022/10/05 00:56:22;;;;;;;12.90;7.47;;;;;;;15.89;86.36;101393.09;6250601;22;20094;-63
2022/10/05 00:58:58;;;;;;;14.10;8.25;;;;;;;15.92;86.65;101396.03;6149481;22;20026;-65
2022/10/05 01:01:58;;;;;;;14.18;9.95;;;;;;;15.93;86.73;101397.69;6250063;22;20020;-64
2022/10/05 01:04:46;;;;;;;19.48;10.93;;;;;;;15.64;87.15;101398.41;6253484;22;20022;-64
2022/10/05 01:07:20;;;;;;;18.75;12.18;;;;;;;15.54;87.24;101387.66;6226137;22;20424;-65
2022/10/05 01:10:07;;;;;;;19.90;11.32;;;;;;;15.57;89.09;101397.28;6279713;22;20313;-64
2022/10/05 01:13:06;;;;;;;17.40;10.68;;;;;;;15.54;88.25;101398.78;6252129;22;20015;-65
2022/10/05 01:16:03;;;;;;;14.27;9.45;;;;;;;15.59;88.24;101395.81;6279628;22;20020;-64
2022/10/05 01:18:44;;;;;;;14.43;9.15;;;;;;;15.43;87.41;101403.03;6279861;22;20428;-65
2022/10/05 01:21:22;;;;;;;13.60;8.45;;;;;;;15.52;88.66;101400.22;6251888;22;20023;-64
2022/10/05 01:24:27;;;;;;;14.48;7.85;;;;;;;15.63;88.64;101390.41;6262486;22;20331;-65
2022/10/05 01:27:14;;;;;;;11.75;8.38;;;;;;;15.46;88.73;101401.56;6279245;22;20027;-65
2022/10/05 01:30:10;;;;;;;14.18;7.82;;;;;;;15.53;89.46;101391.56;6252875;22;20030;-64
2022/10/05 01:32:44;;;;;;;13.65;7.72;;;;;;;15.36;88.19;101391.56;6251863;22;20019;-63
2022/10/05 01:35:20;;;;;;;12.73;8.15;;;;;;;15.19;89.43;101390.78;6252522;22;20011;-64
2022/10/05 01:38:07;;;;;;;14.20;7.60;;;;;;;15.18;89.28;101390.00;6279109;22;20019;-64
2022/10/05 01:40:47;;;;;;;12.40;7.50;;;;;;;15.39;90.63;101376.22;6279125;22;20075;-63
2022/10/05 01:43:35;;;;;;;12.35;7.25;;;;;;;15.44;89.23;101376.91;6250215;22;20448;-64
2022/10/05 01:46:08;;;;;;;13.00;7.32;;;;;;;15.60;88.85;101379.97;6251648;22;20041;-65
2022/10/05 01:48:51;;;;;;;14.85;7.28;;;;;;;15.67;87.97;101375.53;6250907;22;20019;-64
2022/10/05 01:51:19;;;;;;;16.63;7.90;;;;;;;15.59;87.25;101368.03;6251192;22;20020;-65
2022/10/05 01:53:59;;;;;;;11.48;8.07;;;;;;;15.25;87.28;101372.81;6251874;22;20075;-64
2022/10/05 01:56:38;;;;;;;13.50;7.82;;;;;;;15.38;87.82;101367.09;6251189;22;20023;-64
2022/10/05 01:59:18;;;;;;;11.98;7.25;;;;;;;15.40;86.87;101364.81;6251633;22;20336;-64
2022/10/05 02:01:54;;;;;;;15.18;7.20;;;;;;;15.51;88.23;101368.91;6251459;22;20026;-64
2022/10/05 02:04:28;;;;;;;12.20;7.28;;;;;;;15.43;86.80;101364.16;6252352;22;20019;-65
2022/10/05 02:07:21;;;;;;;9.75;6.38;;;;;;;15.75;88.21;101360.81;6254946;22;20459;-65
2022/10/05 02:09:59;;;;;;;12.68;6.65;;;;;;;15.79;86.48;101355.41;6251348;22;20027;-64
2022/10/05 02:12:30;;;;;;;11.63;6.22;;;;;;;15.86;85.79;101358.47;6223562;22;20019;-64
2022/10/05 02:15:02;;;;;;;8.90;5.78;;;;;;;15.94;84.95;101349.28;6198361;22;20016;-64
2022/10/05 02:17:35;;;;;;;9.95;5.50;;;;;;;15.84;84.03;101341.34;6276565;22;20064;-64
2022/10/05 02:20:07;;;;;;;10.93;5.38;;;;;;;15.85;84.16;101344.94;6250124;22;20034;-65
2022/10/05 02:22:46;;;;;;;8.38;5.22;;;;;;;15.83;83.47;101339.69;6250424;22;20380;-65
2022/10/05 02:25:16;;;;;;;11.20;5.22;;;;;;;15.85;84.67;101339.38;6224614;22;20024;-65
2022/10/05 02:27:52;;;;;;;9.70;5.43;;;;;;;15.96;84.76;101343.38;6249902;22;20023;-65
2022/10/05 02:30:20;;;;;;;9.07;5.40;;;;;;;15.93;84.25;101341.28;6249926;22;20030;-65
2022/10/05 02:32:57;;;;;;;9.38;4.90;;;;;;;15.92;83.95;101332.13;6226066;22;20023;-65
2022/10/05 02:35:25;;;;;;;8.13;4.90;;;;;;;15.94;84.04;101334.56;6250870;22;20361;-65
2022/10/05 02:38:07;;;;;;;9.15;5.45;;;;;;;15.88;83.63;101330.38;6249962;22;20019;-65
2022/10/05 02:40:44;;;;;;;10.32;5.15;;;;;;;15.97;83.68;101328.38;6250945;22;20384;-65
2022/10/05 02:43:39;;;;;;;7.20;4.50;;;;;;;16.00;82.87;101322.94;6278622;22;20027;-65
2022/10/05 02:46:14;;;;;;;8.38;4.43;;;;;;;15.92;82.05;101321.00;6250690;22;20016;-65
2022/10/05 02:49:17;;;;;;;7.85;4.63;;;;;;;15.79;81.70;101317.31;6226725;22;20023;-65
2022/10/05 02:52:18;;;;;;;7.70;4.50;;;;;;;15.68;82.67;101315.25;6249147;22;20522;-65
2022/10/05 02:55:09;;;;;;;9.63;4.80;;;;;;;15.64;83.40;101311.50;6249572;22;20019;-65
2022/10/05 02:58:01;;;;;;;8.43;4.57;;;;;;;15.62;82.83;101316.59;6199701;22;20019;-65
2022/10/05 03:00:33;;;;;;;7.80;4.40;;;;;;;15.52;82.53;101317.75;6251670;22;20020;-65
2022/10/05 03:03:17;;;;;;;12.57;4.97;;;;;;;15.29;83.42;101315.53;6225201;22;20031;-65
2022/10/05 03:06:04;;;;;;;8.13;4.80;;;;;;;15.53;84.07;101321.34;6224080;22;20069;-65
2022/10/05 03:08:39;;;;;;;11.55;4.60;;;;;;;15.34;83.09;101318.13;6248943;22;20012;-64
2022/10/05 03:11:12;;;;;;;7.78;4.68;;;;;;;15.18;82.61;101320.59;6249489;22;20020;-64
2022/10/05 03:14:18;;;;;;;10.63;4.63;;;;;;;14.94;83.83;101319.50;6250522;22;20016;-64
2022/10/05 03:17:05;;;;;;;8.05;4.47;;;;;;;14.91;86.42;101323.72;6263011;22;20123;-64
2022/10/05 03:19:46;;;;;;;13.68;4.85;;;;;;;14.86;85.56;101323.91;6250980;22;20075;-64
2022/10/05 03:22:20;;;;;;;8.98;4.10;;;;;;;15.16;85.68;101314.56;6249925;22;20023;-64
2022/10/05 03:24:51;;;;;;;7.65;4.40;;;;;;;15.32;85.98;101307.34;6223105;22;20019;-64
2022/10/05 03:27:19;;;;;;;;;;;;;;;15.28;84.90;101305.56;6248868;22;20016;-64
2022/10/05 03:29:53;;;;;;;9.57;4.43;;;;;;;15.36;86.24;101297.19;6276306;22;19915;-65
2022/10/05 03:32:39;;;;;;;7.10;4.32;;;;;;;15.18;84.43;101292.03;6250121;22;20019;-68
2022/10/05 03:35:41;;;;;;;8.48;4.70;;;;;;;15.03;85.10;101293.34;6250684;22;20022;-65
2022/10/05 03:38:30;;;;;;;7.05;4.40;;;;;;;14.71;85.27;101304.16;6243230;22;20038;-65
2022/10/05 03:41:16;;;;;;;8.52;4.30;;;;;;;14.85;87.00;101308.41;6277142;22;20026;-65
2022/10/05 03:44:14;;;;;;;11.48;4.10;;;;;;;14.76;85.08;101299.28;6278152;22;20043;-65
2022/10/05 03:46:56;;;;;;;6.72;3.63;;;;;;;14.90;86.02;101301.88;6276355;22;20016;-65
2022/10/05 03:49:56;;;;;;;8.68;4.07;;;;;;;14.74;85.41;101293.25;6278047;22;20019;-64
2022/10/05 03:52:28;;;;;;;;;;;;;;;14.54;85.49;101293.88;6251144;22;20016;-64
2022/10/05 03:55:01;;;;;;;7.15;4.50;;;;;;;14.45;85.95;101282.78;6278068;22;19962;-67
2022/10/05 03:57:33;;;;;;;11.30;4.25;;;;;;;14.79;87.50;101290.28;6250545;22;20034;-64
2022/10/05 04:00:08;;;;;;;9.15;4.45;;;;;;;14.71;86.26;101291.13;6225905;22;20016;-64
2022/10/05 04:02:54;;;;;;;8.32;4.25;;;;;;;14.66;85.97;101292.09;6253572;22;20020;-64
2022/10/05 04:05:27;;;;;;;6.10;3.97;;;;;;;14.83;89.18;101302.38;6250407;22;20011;-64
2022/10/05 04:08:00;;;;;;;9.48;4.05;;;;;;;14.31;85.83;101295.19;6225177;22;20024;-65
2022/10/05 04:10:40;;;;;;;6.38;4.05;;;;;;;14.23;87.37;101301.47;6223401;22;20511;-65
2022/10/05 04:13:40;;;;;;;8.32;4.20;;;;;;;14.43;89.60;101298.13;6224766;22;20030;-65
2022/10/05 04:16:13;;;;;;;6.32;3.75;;;;;;;14.47;87.82;101301.91;6182575;22;20039;-65
2022/10/05 04:18:57;;;;;;;8.75;4.35;;;;;;;14.52;89.16;101299.75;6225709;22;20019;-64
2022/10/05 04:21:29;;;;;;;7.53;3.80;;;;;;;14.74;87.85;101297.97;6249490;22;20024;-64
2022/10/05 04:24:03;;;;;;;9.55;3.90;;;;;;;14.71;87.63;101296.66;6248827;22;20026;-65
2022/10/05 04:26:39;;;;;;;6.43;4.20;;;;;;;14.70;86.79;101291.47;6247628;22;20016;-64
2022/10/05 04:29:23;;;;;;;8.85;4.32;;;;;;;14.91;87.37;101287.66;6248760;22;20023;-64
2022/10/05 04:32:14;;;;;;;9.52;5.00;;;;;;;14.88;86.55;101282.78;6224345;22;20020;-64
2022/10/05 04:35:01;;;;;;;8.38;4.10;;;;;;;14.96;88.08;101287.50;6276809;22;20019;-64
2022/10/05 04:37:59;;;;;;;6.72;3.97;;;;;;;14.96;86.58;101284.72;6276796;22;20027;-64
2022/10/05 04:40:38;;;;;;;6.18;3.75;;;;;;;14.81;86.19;101284.41;6250805;22;20026;-64
2022/10/05 04:43:14;;;;;;;7.88;4.15;;;;;;;14.73;85.97;101288.84;6250978;22;20015;-64
2022/10/05 04:45:59;;;;;;;7.82;3.80;;;;;;;14.78;87.19;101282.31;6250798;22;20011;-64
2022/10/05 04:49:05;;;;;;;6.53;4.00;;;;;;;14.84;86.56;101270.72;6225564;22;20020;-64
2022/10/05 04:51:38;;;;;;;7.97;4.60;;;;;;;14.69;86.59;101276.78;6250554;22;20016;-64
2022/10/05 04:54:23;;;;;;;6.63;4.45;;;;;;;14.55;87.66;101268.63;6251406;22;20020;-64
2022/10/05 04:56:58;;;;;;;8.02;4.43;;;;;;;14.67;87.51;101267.97;6250155;22;20012;-64
2022/10/05 04:59:45;;;;;;;7.13;3.92;;;;;;;14.69;87.14;101262.91;6225795;22;20025;-65
2022/10/05 05:02:26;;;;;;;6.03;3.90;;;;;;;14.55;87.37;101270.56;6277981;22;20019;-65
2022/10/05 05:05:31;;;;;;;6.55;3.63;;;;;;;14.59;88.00;101269.59;6225056;22;20020;-64
2022/10/05 05:08:21;;;;;;;10.07;4.32;;;;;;;14.52;87.44;101260.16;6251314;22;20016;-65
2022/10/05 05:11:11;;;;;;;6.40;4.28;;;;;;;14.26;86.29;101262.09;6252001;22;20027;-65
2022/10/05 05:14:06;;;;;;;7.15;4.60;;;;;;;14.45;87.81;101260.63;6252971;22;20026;-64
2022/10/05 05:16:39;;;;;;;14.13;5.03;;;;;;;14.59;89.01;101249.38;6251513;22;20019;-64
2022/10/05 05:19:19;;;;;;;7.15;4.10;;;;;;;14.66;90.15;101249.69;6225263;22;20019;-64
2022/10/05 05:22:06;;;;;;;9.23;4.63;;;;;;;14.68;91.07;101250.16;6250411;22;20022;-64
2022/10/05 05:24:58;;;;;;;5.97;3.88;;;;;;;14.90;93.32;101249.16;6225310;22;20498;-64
2022/10/05 05:27:35;;;;;;;8.10;4.20;;;;;;;15.19;93.56;101240.91;6225505;22;20030;-64
2022/10/05 05:30:25;;;;;;;7.85;4.50;;;;;;;15.24;93.59;101243.50;6250749;22;20035;-64
2022/10/05 05:32:57;;;;;;;8.15;4.30;;;;;;;15.03;91.95;101243.41;6251458;22;20039;-64
2022/10/05 05:35:40;;;;;;;7.88;3.65;;;;;;;15.09;93.89;101246.84;6250925;22;20040;-65
2022/10/05 05:38:17;;;;;;;9.93;4.03;;;;;;;15.00;92.63;101237.72;6225203;22;20082;-65
2022/10/05 05:40:58;;;;;;;7.72;4.15;;;;;;;15.27;92.89;101237.31;6225446;22;20026;-64
2022/10/05 05:43:47;;;;;;;8.82;4.25;;;;;;;15.27;90.35;101231.78;6200965;22;20027;-63
2022/10/05 05:46:36;;;;;;;10.20;4.65;;;;;;;15.15;89.78;101237.19;6225481;22;20020;-63
2022/10/05 05:49:50;;;;;;;8.25;4.15;;;;;;;15.03;90.43;101232.31;6276867;22;20026;-63
2022/10/05 05:52:56;;;;;;;8.50;4.20;;;;;;;15.05;91.51;101231.97;6225684;22;20020;-65
2022/10/05 05:55:28;;;;;;;10.10;4.43;;;;;;;14.98;90.54;101228.91;6240481;22;20038;-65
2022/10/05 05:58:23;;;;;;;8.55;4.07;;;;;;;15.08;91.88;101242.44;6227820;22;20303;-65
2022/10/05 06:01:13;;;;;;;10.88;5.10;;;;;;;15.21;91.57;101228.34;6225733;22;20015;-65
2022/10/05 06:04:02;;;;;;;11.52;4.90;;;;;;;14.99;89.97;101247.19;6262233;22;20020;-64
2022/10/05 06:06:31;;;;;;;9.15;4.85;;;;;;;15.08;91.47;101240.47;6251316;22;20020;-64
2022/10/05 06:09:03;;;;;;;9.83;4.23;;;;;;;14.92;90.29;101242.16;6226943;22;20020;-64
2022/10/05 06:11:49;;;;;;;13.13;4.65;;;;;;;14.53;89.56;101239.59;6251396;22;20039;-65
2022/10/05 06:14:45;;;;;;;9.55;4.18;;;;;;;14.78;91.55;101235.97;6252339;22;20321;-64
2022/10/05 06:17:25;;;;;;;6.63;4.40;;;;;;;14.77;90.79;101237.09;6247000;22;20015;-65
2022/10/05 06:19:56;;;;;;;12.13;4.40;;;;;;;14.97;90.73;101241.97;6252532;22;20046;-65
2022/10/05 06:22:35;;;;;;;7.60;3.75;;;;;;;15.10;89.80;101243.72;6259596;22;20020;-65
2022/10/05 06:25:12;;;;;;;11.32;4.95;;;;;;;15.10;89.10;101235.41;6251358;22;20031;-65
2022/10/05 06:28:08;;;;;;;9.73;5.22;;;;;;;14.95;87.26;101235.94;6251977;22;20026;-64
2022/10/05 06:30:57;;;;;;;8.00;4.45;;;;;;;14.84;87.43;101239.38;6251525;22;20018;-64
2022/10/05 06:33:52;;;;;;;9.32;5.45;;;;;;;14.91;87.84;101237.75;6251891;22;20016;-64
2022/10/05 06:36:34;;;;;;;11.48;5.97;;;;;;;15.07;87.91;101243.56;6225115;22;20020;-64
2022/10/05 06:39:08;;;;;;;10.00;4.80;;;;;;;14.95;86.87;101244.25;6227220;22;20415;-64
2022/10/05 06:41:42;;;;;;;9.95;5.03;;;;;;;14.54;84.53;101235.66;6249923;22;20015;-65
2022/10/05 06:44:15;;;;;;;12.70;5.18;;;;;;;14.64;88.25;101232.56;6278769;22;20059;-66
2022/10/05 06:47:13;;;;;;;10.93;5.97;;;;;;;15.00;88.02;101241.31;6251630;22;20031;-64
2022/10/05 06:50:37;;;;;;;11.32;4.95;;;;;;;15.10;86.54;101235.41;6227688;22;20023;-66
2022/10/05 06:53:35;;;;;;;8.70;4.70;;;;;;;15.26;85.73;101239.28;6255174;22;20015;-64
2022/10/05 06:56:07;;;;;;;10.32;4.78;;;;;;;15.29;85.14;101235.81;6225487;22;20023;-64
2022/10/05 06:58:41;;;;;;;13.23;4.40;;;;;;;15.17;83.73;101232.09;6245861;22;20031;-64
2022/10/05 07:01:32;;;;;;;12.88;4.93;;;;;;;14.89;85.09;101234.47;6276890;22;20019;-64
2022/10/05 07:04:08;;;;;;;11.00;4.80;;;;;;;15.02;86.30;101235.44;6249203;22;20027;-64
2022/10/05 07:06:36;;;;;;;11.32;4.35;;;;;;;15.14;86.56;101230.81;6224276;22;20016;-64
2022/10/05 07:09:23;;;;;;;8.95;4.72;;;;;;;15.43;90.38;101235.66;6247834;22;20027;-64
2022/10/05 07:12:09;;;;;;;11.68;4.97;;;;;;;15.51;90.25;101243.94;6275278;22;20020;-66
2022/10/05 07:15:07;;;;;;;8.98;4.30;;;;;;;15.53;90.01;101235.28;6222079;22;20458;-69
2022/10/05 07:17:44;;;;;;;30.30;17.13;;;;;;;15.14;86.08;101238.31;6250683;22;20041;-65
2022/10/05 07:20:29;;;;;;;16.30;7.60;;;;;;;15.20;88.64;101245.34;6225177;22;20022;-66
2022/10/05 07:23:09;;;;;;;23.08;15.88;;;;;;;15.29;88.11;101251.69;6278639;22;20022;-65
2022/10/05 07:26:08;;;;;;;10.32;5.47;;;;;;;15.05;88.50;101251.41;6250479;22;20344;-66
2022/10/05 07:28:47;;;;;;;19.52;6.70;;;;;;;14.56;86.34;101258.31;6242608;22;20558;-66
2022/10/05 07:31:32;;;;;;;8.77;4.85;;;;;;;14.70;88.76;101252.63;6249667;22;20020;-66
2022/10/05 07:34:40;;;;;;;10.88;5.30;;;;;;;14.81;88.35;101256.69;6251490;22;20019;-65
2022/10/05 07:37:56;;;;;;;15.93;5.07;;;;;;;15.22;89.73;101262.47;6272467;22;20020;-66
2022/10/05 07:40:32;;;;;;;11.35;5.38;;;;;;;15.51;87.96;101268.13;6224298;22;20020;-66
2022/10/05 07:43:14;;;;;;;14.48;5.55;;;;;;;15.60;86.98;101263.34;6251836;22;20015;-66
2022/10/05 07:45:50;;;;;;;11.77;5.13;;;;;;;15.35;84.67;101267.00;6250834;22;20379;-66
2022/10/05 07:48:20;;;;;;;8.60;4.82;;;;;;;15.66;86.68;101262.81;6250923;22;20026;-66
2022/10/05 07:50:57;;;;;;;10.45;6.00;;;;;;;15.85;85.56;101270.72;6249397;22;20451;-66
2022/10/05 07:53:38;;;;;;;14.85;7.45;;;;;;;15.92;85.05;101279.34;6223029;22;20432;-65
2022/10/05 07:56:34;;;;;;;11.52;5.30;;;;;;;15.95;84.09;101275.09;6235408;22;20023;-65
2022/10/05 07:59:09;;;;;;;14.35;4.93;;;;;;;16.07;84.09;101276.00;6217423;22;20023;-67
2022/10/05 08:01:40;;;;;;;17.73;4.88;;;;;;;16.19;83.67;101278.03;6224913;22;20015;-67
2022/10/05 08:04:26;;;;;;;8.35;3.75;;;;;;;16.53;81.96;101272.25;6225070;22;20019;-65
2022/10/05 08:07:04;;;;;;;10.60;3.83;;;;;;;16.59;80.99;101280.06;6225367;22;20113;-66
2022/10/05 08:09:44;;;;;;;7.90;3.10;;;;;;;16.86;78.32;101276.69;6250503;22;20020;-66
2022/10/05 08:12:36;;;;;;;10.50;3.70;;;;;;;16.63;79.88;101277.41;6277973;22;20031;-67
2022/10/05 08:15:12;;;;;;;12.82;4.00;;;;;;;16.61;80.49;101279.72;6279362;22;20020;-66
2022/10/05 08:17:59;;;;;;;14.88;4.35;;;;;;;16.59;80.74;101271.72;6252703;22;20470;-65
2022/10/05 08:20:33;;;;;;;11.07;3.50;;;;;;;16.73;80.66;101266.69;6253434;22;20028;-66
2022/10/05 08:23:07;;;;;;;10.07;3.10;;;;;;;16.85;79.70;101268.69;6253598;22;20026;-65
2022/10/05 08:25:40;;;;;;;17.50;4.25;;;;;;;16.83;78.64;101277.38;6225769;22;20020;-65
2022/10/05 08:28:14;;;;;;;11.35;2.97;;;;;;;16.88;79.31;101270.78;6202945;22;20012;-65
2022/10/05 08:30:56;;;;;;;14.15;3.45;;;;;;;17.09;78.74;101276.28;6249705;22;20343;-66
2022/10/05 08:33:24;;;;;;;13.40;3.60;;;;;;;17.09;78.72;101277.13;6252334;22;20019;-67
2022/10/05 08:36:04;;;;;;;13.52;3.67;;;;;;;17.20;78.34;101275.53;6251878;22;20019;-66
2022/10/05 08:38:32;;;;;;;11.30;3.75;;;;;;;17.19;78.01;101279.47;6280444;22;20015;-64
2022/10/05 08:41:44;;;;;;;8.93;3.15;;;;;;;17.42;77.80;101285.44;6278049;22;20450;-66
2022/10/05 08:44:45;;;;;;;7.18;3.63;;;;;;;17.36;76.71;101282.06;6253596;22;20015;-65
2022/10/05 08:47:30;;;;;;;;;;;;;;;17.08;77.15;101281.06;6280040;22;20356;-65
2022/10/05 08:50:16;;;;;;;11.65;4.45;;;;;;;17.46;78.52;101281.66;6250567;22;19915;-66
2022/10/05 08:53:08;;;;;;;13.13;3.78;;;;;;;17.60;76.41;101278.53;6279561;22;20031;-65
2022/10/05 08:55:35;;;;;;;13.32;3.70;;;;;;;17.85;76.96;101280.97;6278561;22;20035;-64
2022/10/05 08:58:28;;;;;;;6.97;3.30;;;;;;;17.81;76.43;101291.22;6251646;22;20015;-64
2022/10/05 09:01:11;;;;;;;13.35;4.60;;;;;;;17.73;77.45;101300.47;6220121;22;20454;-64
2022/10/05 09:04:05;;;;;;;14.70;5.72;;;;;;;17.80;76.11;101299.91;6251760;22;20020;-64
2022/10/05 09:07:01;;;;;;;9.25;3.58;;;;;;;17.87;77.14;101295.38;6251861;22;20435;-64
2022/10/05 09:09:47;;;;;;;9.05;3.80;;;;;;;18.01;76.37;101292.22;6278651;22;20022;-64
2022/10/05 09:12:33;;;;;;;8.15;3.70;;;;;;;18.11;74.60;101294.56;6275498;22;20016;-64
2022/10/05 09:15:08;;;;;;;8.20;3.42;;;;;;;18.09;75.49;101296.88;6252116;22;20026;-66
2022/10/05 09:18:20;;;;;;;9.82;3.58;;;;;;;18.22;75.35;101303.28;6278558;22;20007;-65
2022/10/05 09:20:58;;;;;;;10.52;3.83;;;;;;;18.35;75.15;101288.13;6278126;22;20019;-65
2022/10/05 09:23:38;;;;;;;7.55;3.50;;;;;;;18.49;75.25;101281.03;6251424;22;20024;-65
2022/10/05 09:26:40;;;;;;;8.60;3.47;;;;;;;18.44;73.98;101286.88;6251257;22;20027;-65
2022/10/05 09:29:10;;;;;;;10.93;4.00;;;;;;;18.31;73.45;101284.41;6249377;22;20225;-66
2022/10/05 09:31:56;;;;;;;;;;;;;;;18.27;74.07;101289.09;6279295;22;20019;-67
2022/10/05 09:34:54;;;;;;;13.77;3.63;;;;;;;18.44;73.60;101292.47;6226646;22;19942;-65
2022/10/05 09:37:54;;;;;;;12.82;4.13;;;;;;;18.43;72.96;101295.59;6279031;22;20015;-66
2022/10/05 09:40:40;;;;;;;9.93;4.50;;;;;;;18.58;72.89;101298.47;6262523;22;20045;-66
2022/10/05 09:43:16;;;;;;;8.55;4.13;;;;;;;18.80;71.03;101300.72;6279234;22;20016;-66
2022/10/05 09:46:22;;;;;;;9.32;3.13;;;;;;;18.86;70.91;101304.84;6279639;22;20314;-65
2022/10/05 09:49:05;;;;;;;8.40;3.13;;;;;;;18.73;70.69;101294.91;6277903;22;20028;-66
2022/10/05 09:52:09;;;;;;;10.88;3.78;;;;;;;18.76;71.63;101297.00;6276935;22;20019;-66
2022/10/05 09:55:07;;;;;;;13.90;3.85;;;;;;;18.41;71.02;101293.13;6249779;22;20018;-65
2022/10/05 09:58:02;;;;;;;8.18;3.45;;;;;;;18.54;71.38;101305.09;6224454;22;20012;-66
2022/10/05 10:00:52;;;;;;;7.85;3.50;;;;;;;18.34;71.19;101306.03;6276037;22;20023;-67
2022/10/05 10:03:57;;;;;;;10.38;3.50;;;;;;;18.56;71.06;101299.97;6277667;22;20020;-67
2022/10/05 10:06:33;;;;;;;13.05;3.88;;;;;;;18.68;70.56;101291.56;6279222;22;20023;-66
2022/10/05 10:09:06;;;;;;;14.77;6.47;;;;;;;18.78;70.48;101303.03;6278609;22;20019;-66
2022/10/05 10:12:05;;;;;;;27.25;10.52;;;;;;;18.04;69.38;101299.09;6278428;22;20074;-66
2022/10/05 10:14:38;;;;;;;25.08;8.57;;;;;;;18.05;69.51;101292.34;6279311;22;20016;-66
2022/10/05 10:17:32;;;;;;;13.93;6.63;;;;;;;18.31;68.51;101290.81;6279251;22;20030;-68
2022/10/05 10:20:26;;;;;;;14.18;5.35;;;;;;;18.49;68.28;101294.19;6273991;22;20024;-67
2022/10/05 10:23:07;;;;;;;13.85;5.07;;;;;;;18.44;66.82;101278.50;6278885;22;20016;-67
2022/10/05 10:25:47;;;;;;;8.98;4.20;;;;;;;18.73;65.40;101277.34;6251949;22;20011;-67
2022/10/05 10:28:20;;;;;;;8.33;4.20;;;;;;;18.64;64.37;101280.28;6279193;22;20027;-67
2022/10/05 10:31:23;;;;;;;7.45;3.90;;;;;;;18.61;66.99;101278.22;6278271;22;20019;-68
2022/10/05 10:34:19;;;;;;;9.77;3.30;;;;;;;18.75;66.84;101275.84;6226762;22;20016;-67
2022/10/05 10:36:58;;;;;;;7.30;2.80;;;;;;;18.81;65.38;101277.19;6278328;22;20012;-68
2022/10/05 10:39:47;;;;;;;10.07;5.28;;;;;;;19.02;64.62;101285.41;6279142;22;20008;-68
2022/10/05 10:42:32;;;;;;;17.13;9.40;;;;;;;18.86;63.55;101273.38;6277123;22;20320;-68
2022/10/05 10:45:47;;;;;;;23.83;13.20;;;;;;;18.85;64.90;101275.34;6278634;22;20020;-66
2022/10/05 10:48:17;;;;;;;35.20;21.38;;;;;;;18.82;64.60;101270.47;6231237;22;20020;-67
2022/10/05 10:50:49;;;;;;;;;;;;;;;18.93;64.74;101265.19;6251505;22;20027;-66
2022/10/05 10:53:47;;;;;;;17.67;9.90;;;;;;;19.00;65.07;101263.38;6251455;22;19919;-67
2022/10/05 10:56:42;;;;;;;13.70;8.57;;;;;;;18.99;63.60;101264.56;6278017;22;20098;-65
2022/10/05 10:59:47;;;;;;;12.85;8.77;;;;;;;19.13;64.70;101254.94;6251589;22;20030;-66
2022/10/05 11:02:49;;;;;;;10.18;5.78;;;;;;;19.06;62.11;101252.78;6278156;22;20023;-66
2022/10/05 11:05:49;;;;;;;8.95;6.40;;;;;;;19.21;63.01;101248.41;6278946;22;20102;-66
2022/10/05 11:08:21;;;;;;;9.65;5.70;;;;;;;19.17;64.52;101250.28;6251406;22;20022;-66
2022/10/05 11:11:13;;;;;;;9.60;5.88;;;;;;;19.26;64.00;101234.16;6224260;22;20020;-66
2022/10/05 11:14:19;;;;;;;10.38;6.40;;;;;;;19.16;64.08;101226.31;6278649;22;20020;-66
2022/10/05 11:16:59;;;;;;;9.85;5.70;;;;;;;19.20;64.51;101228.03;6278403;22;20016;-66
2022/10/05 11:19:49;;;;;;;10.48;4.82;;;;;;;18.95;64.13;101229.34;6278666;22;20022;-66
2022/10/05 11:23:03;;;;;;;11.00;5.55;;;;;;;19.09;65.38;101219.34;6254022;22;20019;-67
2022/10/05 11:26:08;;;;;;;9.85;4.53;;;;;;;19.30;63.91;101223.91;6251651;22;20039;-66
2022/10/05 11:29:12;;;;;;;7.55;4.07;;;;;;;18.85;63.89;101216.72;6278623;22;20007;-65
2022/10/05 11:32:01;;;;;;;6.97;2.65;;;;;;;19.19;63.14;101198.47;6277325;22;20019;-67
2022/10/05 11:34:53;;;;;;;7.57;2.90;;;;;;;19.03;64.17;101195.69;6278023;22;20019;-66
2022/10/05 11:37:54;;;;;;;7.43;3.17;;;;;;;19.26;64.28;101200.66;6276858;22;20015;-66
2022/10/05 11:41:01;;;;;;;5.50;2.45;;;;;;;19.38;63.87;101201.41;6251090;22;20020;-66
2022/10/05 11:43:46;;;;;;;8.50;4.35;;;;;;;19.36;63.91;101202.91;6278244;22;20019;-67
2022/10/05 11:46:14;;;;;;;13.07;3.90;;;;;;;19.53;63.74;101206.16;6278312;22;20447;-67
2022/10/05 11:49:08;;;;;;;11.40;5.63;;;;;;;19.50;63.54;101215.28;6278492;22;20022;-68
2022/10/05 11:51:41;;;;;;;18.17;6.82;;;;;;;19.64;63.26;101204.44;6250205;22;20026;-67
2022/10/05 11:54:08;;;;;;;8.93;4.75;;;;;;;19.64;62.76;101209.22;6278656;22;20015;-67
2022/10/05 11:56:42;;;;;;;7.45;3.50;;;;;;;19.99;62.00;101204.47;6278131;22;20159;-67
2022/10/05 11:59:17;;;;;;;8.75;4.57;;;;;;;19.93;61.97;101203.94;6278688;22;20019;-66
2022/10/05 12:02:36;;;;;;;11.15;3.28;;;;;;;20.02;61.88;101198.94;6250948;22;20038;-67
2022/10/05 12:05:22;;;;;;;16.05;4.55;;;;;;;19.92;62.46;101191.13;6240510;22;20026;-67
2022/10/05 12:08:19;;;;;;;11.70;5.72;;;;;;;20.13;62.23;101188.00;6278035;22;20026;-66
2022/10/05 12:10:57;;;;;;;10.90;5.18;;;;;;;20.14;62.33;101184.00;6276700;22;20019;-66
2022/10/05 12:13:52;;;;;;;8.15;3.95;;;;;;;20.11;62.34;101185.56;6278198;22;20026;-66
2022/10/05 12:16:26;;;;;;;14.73;4.07;;;;;;;20.01;62.92;101191.72;6225655;22;20023;-67
2022/10/05 12:19:00;;;;;;;18.13;4.10;;;;;;;20.11;62.48;101199.56;6251048;22;20321;-66
2022/10/05 12:21:43;;;;;;;19.30;4.85;;;;;;;20.26;63.38;101197.09;6251122;22;20030;-66
2022/10/05 12:24:18;;;;;;;13.27;4.20;;;;;;;20.44;62.01;101185.09;6278278;22;20011;-67
2022/10/05 12:27:01;;;;;;;;;;;;;;;20.44;61.99;101187.09;6278407;22;20019;-66
2022/10/05 12:30:07;;;;;;;12.10;3.13;;;;;;;20.32;62.44;101192.81;6251543;22;19915;-66
2022/10/05 12:32:37;;;;;;;9.15;2.47;;;;;;;20.62;61.30;101191.88;6261209;22;20043;-66
2022/10/05 12:35:13;;;;;;;8.80;2.80;;;;;;;20.54;61.33;101186.50;6278218;22;20367;-67
2022/10/05 12:37:47;;;;;;;11.55;2.50;;;;;;;20.51;61.70;101187.22;6274653;22;20015;-66
2022/10/05 12:40:32;;;;;;;8.82;3.22;;;;;;;20.69;61.13;101185.59;6277859;22;20019;-67